createdAt,value
2023-05-16T00:01:02.808Z,102415.14
2023-05-16T00:03:31.178Z,102419.49
2023-05-16T00:05:59.580Z,102414.35
2023-05-16T00:08:27.657Z,102417.82
2023-05-16T00:10:55.641Z,102419.16
2023-05-16T00:13:25.943Z,102419.54
2023-05-16T00:15:55.604Z,102417.19
2023-05-16T00:18:23.631Z,102414.35
2023-05-16T00:20:52.602Z,102411.52
2023-05-16T00:23:20.775Z,102410.27
2023-05-16T00:25:49.465Z,102411.71
2023-05-16T00:28:17.490Z,102410.03
2023-05-16T00:30:45.519Z,102411.62
2023-05-16T00:33:13.580Z,102416.24
2023-05-16T00:35:41.955Z,102411.11
2023-05-16T00:38:10.624Z,102410.27
2023-05-16T00:40:39.447Z,102412.19
2023-05-16T00:43:07.704Z,102407.92
2023-05-16T00:45:35.882Z,102405.09
2023-05-16T00:48:04.404Z,102401.98
2023-05-16T00:50:34.357Z,102402.86
2023-05-16T00:53:02.551Z,102403.59
2023-05-16T00:55:31.037Z,102402.86
2023-05-16T00:58:02.689Z,102404.82
2023-05-16T01:00:31.624Z,102401.47
2023-05-16T01:03:00.744Z,102402.41
2023-05-16T01:05:29.878Z,102401.36
2023-05-16T01:07:58.067Z,102406.61
2023-05-16T01:10:36.876Z,102408.73
2023-05-16T01:13:24.707Z,102407.30
2023-05-16T01:16:31.747Z,102408.11
2023-05-16T01:19:25.013Z,102409.19
2023-05-16T01:22:05.754Z,102409.40
2023-05-16T01:24:44.131Z,102410.58
2023-05-16T01:27:13.532Z,102409.09
2023-05-16T01:29:41.476Z,102407.61
2023-05-16T01:32:09.620Z,102408.41
2023-05-16T01:34:37.850Z,102406.63
2023-05-16T01:37:16.998Z,102400.59
2023-05-16T01:39:52.431Z,102397.59
2023-05-16T01:42:24.897Z,102396.30
2023-05-16T01:45:18.783Z,102400.30
2023-05-16T01:47:53.515Z,102400.42
2023-05-16T01:50:25.806Z,102401.98
2023-05-16T01:52:55.532Z,102404.09
2023-05-16T01:55:46.078Z,102402.34
2023-05-16T01:58:16.370Z,102399.68
2023-05-16T02:00:45.105Z,102405.55
2023-05-16T02:03:13.531Z,102404.96
2023-05-16T02:05:41.849Z,102406.20
2023-05-16T02:08:14.120Z,102406.04
2023-05-16T02:10:43.117Z,102404.52
2023-05-16T02:13:11.714Z,102408.48
2023-05-16T02:15:39.648Z,102409.65
2023-05-16T02:18:07.880Z,102410.68
2023-05-16T02:20:36.028Z,102411.83
2023-05-16T02:23:04.193Z,102410.61
2023-05-16T02:25:33.538Z,102410.13
2023-05-16T02:28:01.453Z,102409.79
2023-05-16T02:30:29.564Z,102407.09
2023-05-16T02:32:57.537Z,102407.02
2023-05-16T02:35:26.229Z,102405.05
2023-05-16T02:37:54.571Z,102404.73
2023-05-16T02:40:22.603Z,102406.88
2023-05-16T02:42:50.813Z,102411.73
2023-05-16T02:45:18.877Z,102415.02
2023-05-16T02:47:47.097Z,102412.48
2023-05-16T02:50:15.126Z,102417.11
2023-05-16T02:52:43.201Z,102419.91
2023-05-16T02:55:21.828Z,102418.81
2023-05-16T02:57:51.134Z,102421.73
2023-05-16T03:00:19.843Z,102427.21
2023-05-16T03:02:49.488Z,102437.08
2023-05-16T03:05:18.001Z,102441.63
2023-05-16T03:07:46.888Z,102441.52
2023-05-16T03:10:14.965Z,102438.60
2023-05-16T03:12:43.003Z,102435.36
2023-05-16T03:15:11.161Z,102433.03
2023-05-16T03:17:39.413Z,102435.11
2023-05-16T03:20:09.546Z,102433.23
2023-05-16T03:22:37.502Z,102432.98
2023-05-16T03:25:06.174Z,102438.38
2023-05-16T03:27:34.122Z,102439.49
2023-05-16T03:30:02.563Z,102444.48
2023-05-16T03:32:30.933Z,102444.77
2023-05-16T03:34:59.154Z,102440.92
2023-05-16T03:37:28.021Z,102440.23
2023-05-16T03:39:56.217Z,102441.92
2023-05-16T03:42:24.255Z,102438.86
2023-05-16T03:44:52.255Z,102443.14
2023-05-16T03:47:20.430Z,102438.74
2023-05-16T03:49:48.378Z,102434.87
2023-05-16T03:52:16.393Z,102431.52
2023-05-16T03:54:44.748Z,102430.89
2023-05-16T03:57:12.767Z,102431.18
2023-05-16T03:59:40.993Z,102433.08
2023-05-16T04:02:09.315Z,102432.00
2023-05-16T04:04:37.445Z,102434.40
2023-05-16T04:07:06.649Z,102435.42
2023-05-16T04:09:34.610Z,102432.02
2023-05-16T04:12:03.406Z,102438.09
2023-05-16T04:14:32.106Z,102444.38
2023-05-16T04:17:00.420Z,102445.88
2023-05-16T04:19:28.636Z,102445.17
2023-05-16T04:21:56.608Z,102440.82
2023-05-16T04:24:26.735Z,102437.52
2023-05-16T04:26:55.725Z,102439.73
2023-05-16T04:29:23.910Z,102442.48
2023-05-16T04:31:52.252Z,102443.02
2023-05-16T04:34:20.192Z,102443.92
2023-05-16T04:36:48.128Z,102446.52
2023-05-16T04:39:16.297Z,102447.86
2023-05-16T04:41:44.235Z,102446.59
2023-05-16T04:44:12.269Z,102447.05
2023-05-16T04:46:40.548Z,102445.93
2023-05-16T04:49:08.753Z,102446.25
2023-05-16T04:51:37.053Z,102449.33
2023-05-16T04:54:05.109Z,102448.94
2023-05-16T04:56:33.101Z,102448.23
2023-05-16T04:59:01.155Z,102445.69
2023-05-16T05:01:29.303Z,102444.52
2023-05-16T05:03:57.413Z,102448.67
2023-05-16T05:06:25.788Z,102446.84
2023-05-16T05:08:54.886Z,102452.13
2023-05-16T05:11:23.362Z,102450.47
2023-05-16T05:13:53.128Z,102445.77
2023-05-16T05:16:21.334Z,102439.77
2023-05-16T05:18:49.817Z,102443.89
2023-05-16T05:21:18.534Z,102444.27
2023-05-16T05:23:47.107Z,102441.85
2023-05-16T05:26:15.405Z,102445.21
2023-05-16T05:28:47.948Z,102449.44
2023-05-16T05:31:22.180Z,102451.48
2023-05-16T05:33:50.552Z,102452.91
2023-05-16T05:36:18.624Z,102453.84
2023-05-16T05:38:46.656Z,102456.25
2023-05-16T05:41:14.760Z,102455.83
2023-05-16T05:43:42.894Z,102454.36
2023-05-16T05:46:10.975Z,102457.48
2023-05-16T05:48:39.115Z,102461.56
2023-05-16T05:51:07.064Z,102459.05
2023-05-16T05:53:35.120Z,102457.95
2023-05-16T05:56:03.123Z,102459.72
2023-05-16T05:58:31.271Z,102458.77
2023-05-16T06:00:59.302Z,102463.95
2023-05-16T06:03:27.435Z,102469.70
2023-05-16T06:05:55.724Z,102472.83
2023-05-16T06:08:23.957Z,102475.12
2023-05-16T06:10:52.751Z,102480.16
2023-05-16T06:13:20.825Z,102478.90
2023-05-16T06:15:53.506Z,102477.97
2023-05-16T06:18:22.109Z,102477.55
2023-05-16T06:20:50.766Z,102478.11
2023-05-16T06:23:21.053Z,102483.62
2023-05-16T06:25:49.434Z,102481.52
2023-05-16T06:28:17.323Z,102483.48
2023-05-16T06:30:45.457Z,102483.31
2023-05-16T06:33:15.774Z,102484.32
2023-05-16T06:35:43.808Z,102490.52
2023-05-16T06:38:11.898Z,102495.66
2023-05-16T06:40:39.866Z,102500.95
2023-05-16T06:43:08.327Z,102499.70
2023-05-16T06:45:36.485Z,102501.30
2023-05-16T06:48:05.331Z,102506.35
2023-05-16T06:50:35.417Z,102508.78
2023-05-16T06:53:05.219Z,102509.81
2023-05-16T06:55:36.010Z,102511.02
2023-05-16T06:58:04.475Z,102509.90
2023-05-16T07:00:33.604Z,102509.85
2023-05-16T07:03:02.066Z,102512.48
2023-05-16T07:05:30.244Z,102517.09
2023-05-16T07:07:58.362Z,102517.09
2023-05-16T07:10:27.389Z,102521.29
2023-05-16T07:12:55.876Z,102522.39
2023-05-16T07:15:24.010Z,102523.44
2023-05-16T07:17:52.630Z,102526.57
2023-05-16T07:20:21.282Z,102527.42
2023-05-16T07:22:49.599Z,102526.18
2023-05-16T07:25:17.611Z,102525.29
2023-05-16T07:27:45.592Z,102533.70
2023-05-16T07:30:14.523Z,102526.74
2023-05-16T07:32:43.674Z,102524.36
2023-05-16T07:35:13.813Z,102526.48
2023-05-16T07:37:43.640Z,102529.79
2023-05-16T07:40:12.449Z,102529.69
2023-05-16T07:42:40.517Z,102536.93
2023-05-16T07:45:09.364Z,102541.67
2023-05-16T07:47:37.669Z,102542.10
2023-05-16T07:50:06.561Z,102545.88
2023-05-16T07:52:34.951Z,102550.11
2023-05-16T07:55:03.952Z,102549.51
2023-05-16T07:57:32.415Z,102550.91
2023-05-16T08:00:00.713Z,102548.87
2023-05-16T08:02:31.264Z,102551.21
2023-05-16T08:04:59.818Z,102552.73
2023-05-16T08:07:27.993Z,102551.88
2023-05-16T08:09:56.114Z,102551.54
2023-05-16T08:12:24.613Z,102552.20
2023-05-16T08:14:53.081Z,102552.28
2023-05-16T08:17:21.297Z,102559.44
2023-05-16T08:19:50.133Z,102559.34
2023-05-16T08:22:18.523Z,102560.30
2023-05-16T08:24:46.695Z,102555.77
2023-05-16T08:27:14.677Z,102553.38
2023-05-16T08:29:42.741Z,102552.23
2023-05-16T08:32:13.677Z,102554.83
2023-05-16T08:34:42.161Z,102554.54
2023-05-16T08:37:10.888Z,102551.91
2023-05-16T08:39:40.247Z,102554.30
2023-05-16T08:42:08.934Z,102556.27
2023-05-16T08:44:36.955Z,102559.81
2023-05-16T08:47:14.057Z,102560.20
2023-05-16T08:49:44.263Z,102566.41
2023-05-16T08:52:14.364Z,102559.60
2023-05-16T08:54:43.382Z,102562.23
2023-05-16T08:57:11.908Z,102560.02
2023-05-16T08:59:41.157Z,102560.89
2023-05-16T09:02:09.731Z,102561.38
2023-05-16T09:04:39.095Z,102565.41
2023-05-16T09:07:07.240Z,102569.59
2023-05-16T09:09:35.960Z,102571.36
2023-05-16T09:12:04.164Z,102569.67
2023-05-16T09:14:32.145Z,102571.63
2023-05-16T09:17:10.232Z,102569.52
2023-05-16T09:19:42.701Z,102573.53
2023-05-16T09:22:15.283Z,102572.37
2023-05-16T09:24:45.480Z,102573.47
2023-05-16T09:27:15.246Z,102569.73
2023-05-16T09:29:47.866Z,102570.84
2023-05-16T09:32:17.781Z,102573.05
2023-05-16T09:34:51.514Z,102578.48
2023-05-16T09:37:20.683Z,102577.34
2023-05-16T09:39:51.215Z,102572.11
2023-05-16T09:42:20.819Z,102573.98
2023-05-16T09:44:54.996Z,102573.77
2023-05-16T09:47:23.209Z,102572.54
2023-05-16T09:49:54.704Z,102570.61
2023-05-16T09:52:23.022Z,102569.92
2023-05-16T09:54:51.138Z,102570.70
2023-05-16T09:57:20.268Z,102568.76
2023-05-16T09:59:48.582Z,102571.42
2023-05-16T10:02:17.435Z,102572.45
2023-05-16T10:04:46.895Z,102569.27
2023-05-16T10:07:16.335Z,102571.31
2023-05-16T10:09:46.300Z,102570.61
2023-05-16T10:12:16.120Z,102567.05
2023-05-16T10:14:46.879Z,102568.88
2023-05-16T10:17:15.906Z,102569.50
2023-05-16T10:19:45.552Z,102568.23
2023-05-16T10:22:15.010Z,102564.72
2023-05-16T10:24:59.233Z,102565.91
2023-05-16T10:27:28.263Z,102566.02
2023-05-16T10:29:58.365Z,102562.12
2023-05-16T10:32:28.182Z,102557.50
2023-05-16T10:34:56.955Z,102562.00
2023-05-16T10:37:25.977Z,102560.30
2023-05-16T10:39:54.998Z,102559.09
2023-05-16T10:42:23.377Z,102556.42
2023-05-16T10:45:04.826Z,102558.23
2023-05-16T10:47:33.986Z,102552.04
2023-05-16T10:50:02.380Z,102553.15
2023-05-16T10:52:35.517Z,102551.77
2023-05-16T10:55:04.954Z,102551.52
2023-05-16T10:57:33.707Z,102549.03
2023-05-16T11:00:04.256Z,102547.09
2023-05-16T11:02:34.816Z,102549.89
2023-05-16T11:05:03.259Z,102551.39
2023-05-16T11:07:39.029Z,102542.09
2023-05-16T11:10:15.896Z,102545.63
2023-05-16T11:12:50.769Z,102546.31
2023-05-16T11:15:19.466Z,102542.37
2023-05-16T11:17:48.329Z,102547.36
2023-05-16T11:20:45.917Z,102550.38
2023-05-16T11:23:22.989Z,102554.65
2023-05-16T11:25:55.768Z,102554.34
2023-05-16T11:28:28.084Z,102552.21
2023-05-16T11:31:00.194Z,102549.55
2023-05-16T11:33:35.364Z,102555.37
2023-05-16T11:36:15.079Z,102549.84
2023-05-16T11:38:44.637Z,102549.47
2023-05-16T11:41:15.705Z,102552.75
2023-05-16T11:43:45.967Z,102551.05
2023-05-16T11:46:16.657Z,102548.21
2023-05-16T11:48:46.603Z,102544.44
2023-05-16T11:51:19.086Z,102543.91
2023-05-16T11:53:50.915Z,102537.37
2023-05-16T11:56:21.776Z,102537.59
2023-05-16T11:58:50.869Z,102540.14
2023-05-16T12:01:19.345Z,102535.68
2023-05-16T12:03:55.678Z,102534.67
2023-05-16T12:06:24.011Z,102538.46
2023-05-16T12:08:52.922Z,102540.66
2023-05-16T12:11:23.664Z,102543.50
2023-05-16T12:13:52.685Z,102548.44
2023-05-16T12:16:20.906Z,102556.90
2023-05-16T12:18:50.021Z,102548.93
2023-05-16T12:21:18.183Z,102554.06
2023-05-16T12:23:46.349Z,102553.15
2023-05-16T12:26:14.781Z,102549.20
2023-05-16T12:28:44.725Z,102546.98
2023-05-16T12:33:55.705Z,102544.81
2023-05-16T12:36:25.084Z,102541.98
2023-05-16T12:38:53.803Z,102542.67
2023-05-16T12:41:23.195Z,102547.70
2023-05-16T12:43:51.569Z,102543.52
2023-05-16T12:46:20.331Z,102547.73
2023-05-16T12:48:48.521Z,102546.13
2023-05-16T12:51:19.045Z,102544.90
2023-05-16T12:54:05.799Z,102544.39
2023-05-16T12:56:41.691Z,102550.09
2023-05-16T12:59:09.790Z,102546.60
2023-05-16T13:01:38.758Z,102548.00
2023-05-16T13:04:07.199Z,102548.37
2023-05-16T13:06:55.415Z,102544.77
2023-05-16T13:09:24.708Z,102538.92
2023-05-16T13:11:53.627Z,102544.77
2023-05-16T13:14:22.126Z,102545.66
2023-05-16T13:16:50.247Z,102541.73
2023-05-16T13:19:18.481Z,102544.42
2023-05-16T13:21:46.910Z,102542.10
2023-05-16T13:24:15.204Z,102544.23
2023-05-16T13:26:43.367Z,102544.56
2023-05-16T13:29:12.457Z,102547.70
2023-05-16T13:31:40.857Z,102539.13
2023-05-16T13:34:09.058Z,102543.56
2023-05-16T13:36:52.288Z,102547.16
2023-05-16T13:39:22.762Z,102545.95
2023-05-16T13:41:51.837Z,102542.48
2023-05-16T13:44:20.333Z,102537.66
2023-05-16T13:46:48.920Z,102532.50
2023-05-16T13:49:17.087Z,102529.02
2023-05-16T13:51:45.785Z,102532.85
2023-05-16T13:54:13.718Z,102530.69
2023-05-16T13:56:42.214Z,102534.92
2023-05-16T13:59:14.243Z,102532.55
2023-05-16T14:01:46.917Z,102532.73
2023-05-16T14:04:15.135Z,102535.29
2023-05-16T14:06:43.738Z,102544.95
2023-05-16T14:09:13.326Z,102539.98
2023-05-16T14:11:41.409Z,102539.98
2023-05-16T14:14:09.594Z,102543.77
2023-05-16T14:16:37.807Z,102548.48
2023-05-16T14:19:06.517Z,102544.20
2023-05-16T14:21:34.821Z,102545.12
2023-05-16T14:24:02.897Z,102541.91
2023-05-16T14:26:32.534Z,102541.01
2023-05-16T14:29:00.890Z,102538.51
2023-05-16T14:31:29.008Z,102538.48
2023-05-16T14:33:57.234Z,102538.41
2023-05-16T14:38:53.894Z,102537.64
2023-05-16T14:41:22.702Z,102538.20
2023-05-16T14:43:51.258Z,102542.66
2023-05-16T14:46:19.913Z,102543.78
2023-05-16T14:48:48.337Z,102543.08
2023-05-16T14:51:17.043Z,102540.33
2023-05-16T14:53:47.056Z,102540.33
2023-05-16T14:56:16.238Z,102535.98
2023-05-16T14:58:44.425Z,102535.05
2023-05-16T15:01:12.698Z,102533.33
2023-05-16T15:03:53.595Z,102535.08
2023-05-16T15:06:24.715Z,102529.27
2023-05-16T15:08:53.529Z,102531.70
2023-05-16T15:11:21.919Z,102532.48
2023-05-16T15:13:49.996Z,102531.33
2023-05-16T15:16:18.369Z,102534.08
2023-05-16T15:18:46.842Z,102539.93
2023-05-16T15:21:14.963Z,102541.46
2023-05-16T15:23:43.504Z,102541.39
2023-05-16T15:26:11.825Z,102540.42
2023-05-16T15:28:39.798Z,102540.70
2023-05-16T15:31:07.849Z,102538.00
2023-05-16T15:33:36.445Z,102537.94
2023-05-16T15:36:05.135Z,102536.26
2023-05-16T15:38:33.257Z,102536.55
2023-05-16T15:41:16.484Z,102535.23
2023-05-16T15:43:50.586Z,102540.36
2023-05-16T15:46:18.686Z,102539.63
2023-05-16T15:48:46.993Z,102545.55
2023-05-16T15:51:16.294Z,102543.69
2023-05-16T15:53:45.131Z,102539.92
2023-05-16T15:56:13.482Z,102547.33
2023-05-16T15:58:41.975Z,102543.05
2023-05-16T16:01:10.034Z,102542.86
2023-05-16T16:03:38.459Z,102548.82
2023-05-16T16:06:06.733Z,102544.21
2023-05-16T16:08:35.511Z,102540.89
2023-05-16T16:11:03.937Z,102537.64
2023-05-16T16:13:32.947Z,102542.62
2023-05-16T16:16:01.569Z,102546.83
2023-05-16T16:18:29.898Z,102547.55
2023-05-16T16:20:57.979Z,102543.97
2023-05-16T16:23:26.260Z,102540.91
2023-05-16T16:25:54.621Z,102547.69
2023-05-16T16:28:22.793Z,102544.37
2023-05-16T16:30:51.436Z,102552.58
2023-05-16T16:33:19.781Z,102551.60
2023-05-16T16:35:48.187Z,102552.67
2023-05-16T16:38:16.570Z,102548.21
2023-05-16T16:40:44.633Z,102547.95
2023-05-16T16:43:12.680Z,102548.21
2023-05-16T16:45:40.862Z,102543.13
2023-05-16T16:48:09.866Z,102547.71
2023-05-16T16:50:38.077Z,102546.98
2023-05-16T16:53:06.010Z,102547.54
2023-05-16T16:55:34.348Z,102545.48
2023-05-16T16:58:02.828Z,102547.52
2023-05-16T17:00:31.728Z,102547.19
2023-05-16T17:02:59.930Z,102543.63
2023-05-16T17:05:28.379Z,102550.95
2023-05-16T17:07:56.767Z,102551.23
2023-05-16T17:10:24.800Z,102549.06
2023-05-16T17:12:52.814Z,102551.88
2023-05-16T17:15:21.482Z,102550.64
2023-05-16T17:17:50.532Z,102547.92
2023-05-16T17:20:18.757Z,102545.55
2023-05-16T17:22:48.414Z,102538.70
2023-05-16T17:25:16.840Z,102542.43
2023-05-16T17:27:45.625Z,102537.83
2023-05-16T17:30:13.876Z,102540.53
2023-05-16T17:32:42.203Z,102543.54
2023-05-16T17:35:10.740Z,102547.11
2023-05-16T17:37:38.893Z,102548.00
2023-05-16T17:40:10.293Z,102554.94
2023-05-16T17:42:38.662Z,102554.94
2023-05-16T17:45:08.165Z,102559.54
2023-05-16T17:47:36.222Z,102560.70
2023-05-16T17:50:05.574Z,102561.35
2023-05-16T17:52:35.467Z,102558.18
2023-05-16T17:55:04.948Z,102567.60
2023-05-16T17:57:34.334Z,102570.95
2023-05-16T18:00:05.748Z,102567.61
2023-05-16T18:02:35.537Z,102564.33
2023-05-16T18:05:07.069Z,102564.88
2023-05-16T18:07:35.307Z,102562.27
2023-05-16T18:10:04.264Z,102567.46
2023-05-16T18:12:32.569Z,102566.73
2023-05-16T18:15:00.804Z,102566.68
2023-05-16T18:17:29.766Z,102568.46
2023-05-16T18:19:58.724Z,102571.53
2023-05-16T18:22:27.872Z,102576.85
2023-05-16T18:24:56.017Z,102584.56
2023-05-16T18:27:24.359Z,102586.55
2023-05-16T18:29:52.507Z,102588.20
2023-05-16T18:32:20.977Z,102588.97
2023-05-16T18:34:49.361Z,102589.93
2023-05-16T18:37:17.690Z,102593.01
2023-05-16T18:39:46.223Z,102591.65
2023-05-16T18:42:17.343Z,102591.52
2023-05-16T18:44:46.580Z,102594.26
2023-05-16T18:47:16.078Z,102593.48
2023-05-16T18:49:44.347Z,102595.83
2023-05-16T18:52:12.550Z,102595.48
2023-05-16T18:54:40.709Z,102594.85
2023-05-16T18:57:09.002Z,102593.35
2023-05-16T18:59:37.771Z,102595.72
2023-05-16T19:02:06.236Z,102599.11
2023-05-16T19:04:34.731Z,102600.66
2023-05-16T19:07:04.745Z,102602.40
2023-05-16T19:09:33.937Z,102606.40
2023-05-16T19:12:02.115Z,102604.84
2023-05-16T19:14:30.283Z,102606.16
2023-05-16T19:16:58.417Z,102605.36
2023-05-16T19:19:26.722Z,102610.64
2023-05-16T19:21:54.974Z,102613.55
2023-05-16T19:24:23.160Z,102619.46
2023-05-16T19:26:51.212Z,102622.88
2023-05-16T19:29:21.423Z,102617.63
2023-05-16T19:31:49.776Z,102625.92
2023-05-16T19:34:20.710Z,102620.86
2023-05-16T19:36:49.129Z,102627.22
2023-05-16T19:39:17.189Z,102628.23
2023-05-16T19:41:49.894Z,102627.30
2023-05-16T19:44:20.565Z,102629.83
2023-05-16T19:46:48.588Z,102631.26
2023-05-16T19:49:19.531Z,102637.14
2023-05-16T19:51:48.565Z,102639.09
2023-05-16T19:54:16.739Z,102644.77
2023-05-16T19:56:45.133Z,102649.39
2023-05-16T19:59:13.172Z,102649.90
2023-05-16T20:04:14.806Z,102651.71
2023-05-16T20:06:45.397Z,102657.94
2023-05-16T20:09:13.782Z,102659.41
2023-05-16T20:11:41.830Z,102668.10
2023-05-16T20:14:09.787Z,102674.00
2023-05-16T20:16:38.548Z,102675.18
2023-05-16T20:19:07.373Z,102678.98
2023-05-16T20:21:35.876Z,102683.30
2023-05-16T20:24:05.961Z,102687.13
2023-05-16T20:26:34.208Z,102691.95
2023-05-16T20:29:02.544Z,102694.11
2023-05-16T20:31:30.632Z,102699.10
2023-05-16T20:33:58.882Z,102701.75
2023-05-16T20:36:27.162Z,102699.89
2023-05-16T20:38:55.342Z,102705.36
2023-05-16T20:41:23.446Z,102710.79
2023-05-16T20:43:51.994Z,102714.23
2023-05-16T20:46:20.168Z,102713.10
2023-05-16T20:48:48.919Z,102723.23
2023-05-16T20:51:17.135Z,102723.56
2023-05-16T20:53:45.105Z,102720.41
2023-05-16T20:56:13.414Z,102716.13
2023-05-16T20:58:42.365Z,102715.45
2023-05-16T21:01:10.625Z,102717.63
2023-05-16T21:03:38.762Z,102722.49
2023-05-16T21:06:06.944Z,102719.54
2023-05-16T21:08:35.374Z,102718.71
2023-05-16T21:11:03.965Z,102719.27
2023-05-16T21:13:32.172Z,102722.73
2023-05-16T21:16:00.496Z,102722.57
2023-05-16T21:18:28.525Z,102723.14
2023-05-16T21:20:56.818Z,102721.13
2023-05-16T21:23:25.033Z,102723.52
2023-05-16T21:25:53.045Z,102727.83
2023-05-16T21:28:21.103Z,102726.74
2023-05-16T21:30:49.246Z,102731.17
2023-05-16T21:33:17.546Z,102727.26
2023-05-16T21:35:45.929Z,102730.54
2023-05-16T21:38:14.283Z,102735.05
2023-05-16T21:40:42.663Z,102736.54
2023-05-16T21:43:10.836Z,102734.63
2023-05-16T21:45:40.398Z,102738.83
2023-05-16T21:48:09.051Z,102743.77
2023-05-16T21:50:37.281Z,102739.95
2023-05-16T21:53:05.713Z,102738.58
2023-05-16T21:55:33.859Z,102737.77
2023-05-16T21:58:02.348Z,102737.27
2023-05-16T22:00:30.617Z,102737.04
2023-05-16T22:02:58.938Z,102739.23
2023-05-16T22:05:27.868Z,102742.20
2023-05-16T22:07:56.169Z,102746.08
2023-05-16T22:10:24.368Z,102744.61
2023-05-16T22:12:52.717Z,102747.98
2023-05-16T22:15:20.785Z,102744.04
2023-05-16T22:17:49.229Z,102748.19
2023-05-16T22:20:17.459Z,102748.16
2023-05-16T22:22:45.768Z,102748.10
2023-05-16T22:25:13.792Z,102746.26
2023-05-16T22:27:41.894Z,102745.04
2023-05-16T22:30:10.240Z,102746.62
2023-05-16T22:32:38.338Z,102751.05
2023-05-16T22:35:07.166Z,102747.52
2023-05-16T22:37:35.277Z,102747.40
2023-05-16T22:40:03.492Z,102745.00
2023-05-16T22:42:31.759Z,102748.34
2023-05-16T22:44:59.808Z,102745.37
2023-05-16T22:47:29.021Z,102748.24
2023-05-16T22:49:57.167Z,102751.72
2023-05-16T22:52:25.621Z,102748.67
2023-05-16T22:54:53.707Z,102748.70
2023-05-16T22:57:21.689Z,102752.74
2023-05-16T22:59:49.713Z,102753.30
2023-05-16T23:02:18.367Z,102754.30
2023-05-16T23:04:46.368Z,102753.98
2023-05-16T23:07:14.588Z,102751.67
2023-05-16T23:09:42.794Z,102753.21
2023-05-16T23:12:11.036Z,102755.13
2023-05-16T23:14:39.009Z,102754.27
2023-05-16T23:17:07.193Z,102750.33
2023-05-16T23:19:35.641Z,102749.18
2023-05-16T23:22:04.047Z,102747.02
2023-05-16T23:24:32.557Z,102744.51
2023-05-16T23:27:00.921Z,102743.91
2023-05-16T23:29:29.060Z,102743.34
2023-05-16T23:31:57.144Z,102746.88
2023-05-16T23:34:25.607Z,102745.48
2023-05-16T23:36:53.800Z,102742.58
2023-05-16T23:39:22.179Z,102740.48
2023-05-16T23:41:50.360Z,102739.71
2023-05-16T23:44:18.933Z,102736.29
2023-05-16T23:46:47.010Z,102734.08
2023-05-16T23:49:15.183Z,102734.44
2023-05-16T23:51:56.816Z,102732.24
2023-05-16T23:54:26.744Z,102731.19
2023-05-16T23:56:54.916Z,102729.79
2023-05-16T23:59:23.158Z,102729.63
